createdAt,value
2022-11-18T00:00:45.977Z,19.40
2022-11-18T00:05:54.160Z,19.60
2022-11-18T00:10:58.819Z,19.50
2022-11-18T00:16:02.614Z,19.40
2022-11-18T00:21:06.505Z,19.50
2022-11-18T00:26:12.605Z,19.50
2022-11-18T00:31:15.734Z,19.50
2022-11-18T00:36:18.966Z,19.50
2022-11-18T00:41:23.845Z,19.50
2022-11-18T00:46:27.119Z,19.40
2022-11-18T00:51:30.328Z,19.40
2022-11-18T00:56:35.110Z,19.40
2022-11-18T01:01:38.453Z,19.40
2022-11-18T01:06:41.688Z,19.40
2022-11-18T01:12:03.813Z,19.50
2022-11-18T01:17:07.052Z,19.40
2022-11-18T01:22:10.310Z,19.40
2022-11-18T01:27:14.874Z,19.50
2022-11-18T01:32:24.499Z,19.40
2022-11-18T01:37:28.392Z,19.40
2022-11-18T01:42:33.089Z,19.40
2022-11-18T01:47:39.131Z,19.40
2022-11-18T01:52:45.265Z,19.40
2022-11-18T01:57:57.405Z,19.40
2022-11-18T02:03:01.663Z,19.40
2022-11-18T02:08:05.021Z,19.40
2022-11-18T02:13:09.634Z,19.40
2022-11-18T02:18:16.317Z,19.40
2022-11-18T02:23:40.485Z,19.30
2022-11-18T02:28:54.624Z,19.40
2022-11-18T02:34:01.282Z,19.40
2022-11-18T02:39:08.433Z,19.40
2022-11-18T02:44:14.793Z,19.40
2022-11-18T02:49:19.550Z,19.30
2022-11-18T02:54:24.758Z,19.40
2022-11-18T02:59:30.490Z,19.30
2022-11-18T03:04:34.479Z,19.40
2022-11-18T03:09:39.587Z,19.40
2022-11-18T03:14:47.817Z,19.30
2022-11-18T03:19:55.896Z,19.40
2022-11-18T03:25:03.482Z,19.40
2022-11-18T03:30:09.609Z,19.30
2022-11-18T03:35:14.882Z,19.30
2022-11-18T03:40:20.139Z,19.40
2022-11-18T03:45:26.645Z,19.30
2022-11-18T03:50:33.126Z,19.30
2022-11-18T03:55:38.742Z,19.40
2022-11-18T04:00:45.578Z,19.30
2022-11-18T04:05:50.657Z,19.30
2022-11-18T04:10:56.315Z,19.30
2022-11-18T04:16:01.339Z,19.30
2022-11-18T04:21:04.602Z,19.30
2022-11-18T04:26:07.998Z,19.30
2022-11-18T04:31:12.565Z,19.30
2022-11-18T04:36:15.838Z,19.30
2022-11-18T04:41:19.118Z,19.30
2022-11-18T04:46:23.846Z,19.30
2022-11-18T04:51:27.083Z,19.30
2022-11-18T04:56:30.649Z,19.20
2022-11-18T05:01:35.758Z,19.20
2022-11-18T05:06:39.063Z,19.30
2022-11-18T05:11:59.660Z,19.30
2022-11-18T05:17:05.856Z,19.20
2022-11-18T05:22:09.134Z,19.20
2022-11-18T05:27:12.694Z,19.20
2022-11-18T05:32:17.254Z,19.20
2022-11-18T05:37:20.505Z,19.20
2022-11-18T05:42:40.994Z,19.20
2022-11-18T05:47:59.394Z,19.20
2022-11-18T05:53:03.194Z,19.20
2022-11-18T05:58:06.629Z,19.20
2022-11-18T06:03:18.404Z,19.20
2022-11-18T06:08:22.495Z,19.10
2022-11-18T06:13:27.138Z,19.20
2022-11-18T06:18:33.009Z,19.20
2022-11-18T06:23:36.993Z,19.20
2022-11-18T06:28:40.464Z,19.10
2022-11-18T06:33:45.142Z,19.10
2022-11-18T06:38:48.416Z,19.20
2022-11-18T06:43:51.597Z,19.10
2022-11-18T06:48:56.232Z,19.10
2022-11-18T06:53:59.409Z,19.20
2022-11-18T06:59:02.620Z,19.20
2022-11-18T07:04:07.392Z,19.10
2022-11-18T07:09:10.637Z,19.10
2022-11-18T07:14:14.641Z,19.20
2022-11-18T07:19:19.391Z,19.10
2022-11-18T07:24:22.740Z,19.10
2022-11-18T07:29:25.924Z,19.20
2022-11-18T07:34:30.683Z,19.10
2022-11-18T07:39:33.889Z,19.10
2022-11-18T07:44:37.078Z,19.10
2022-11-18T07:49:41.758Z,19.10
2022-11-18T07:54:45.021Z,19.10
2022-11-18T07:59:48.477Z,19.00
2022-11-18T08:04:53.283Z,19.10
2022-11-18T08:09:56.630Z,19.00
2022-11-18T08:14:59.917Z,19.10
2022-11-18T08:20:04.699Z,19.10
2022-11-18T08:25:08.587Z,19.10
2022-11-18T08:30:12.653Z,19.00
2022-11-18T08:35:17.396Z,19.00
2022-11-18T08:40:20.800Z,19.10
2022-11-18T08:45:24.162Z,19.00
2022-11-18T08:50:28.794Z,19.10
2022-11-18T08:55:32.009Z,19.10
2022-11-18T09:00:35.248Z,19.10
2022-11-18T09:05:39.837Z,19.10
2022-11-18T09:10:44.465Z,19.10
2022-11-18T09:15:47.723Z,19.10
2022-11-18T09:20:56.929Z,19.10
2022-11-18T09:26:00.474Z,19.10
2022-11-18T09:31:05.172Z,19.00
2022-11-18T09:36:13.918Z,19.10
2022-11-18T09:41:23.513Z,19.10
2022-11-18T09:46:28.730Z,19.10
2022-11-18T09:51:34.862Z,19.00
2022-11-18T09:56:38.076Z,19.10
2022-11-18T10:01:41.491Z,19.20
2022-11-18T10:06:46.589Z,19.30
2022-11-18T10:11:56.490Z,19.30
2022-11-18T10:17:04.756Z,19.40
2022-11-18T10:22:22.614Z,19.40
2022-11-18T10:27:29.289Z,19.40
2022-11-18T10:32:32.566Z,19.40
2022-11-18T10:38:06.224Z,19.40
2022-11-18T10:43:01.552Z,19.40
2022-11-18T10:48:09.417Z,19.50
2022-11-18T10:53:27.849Z,19.50
2022-11-18T10:58:33.327Z,19.50
2022-11-18T11:03:37.558Z,19.50
2022-11-18T11:08:48.222Z,19.50
2022-11-18T11:13:53.359Z,19.60
2022-11-18T11:18:57.984Z,19.60
2022-11-18T11:24:01.213Z,19.50
2022-11-18T11:29:09.091Z,19.60
2022-11-18T11:34:18.020Z,19.50
2022-11-18T11:39:32.321Z,19.60
2022-11-18T11:44:42.013Z,19.50
2022-11-18T11:49:50.757Z,19.50
2022-11-18T11:54:56.921Z,19.50
2022-11-18T12:00:03.797Z,19.50
2022-11-18T12:05:12.845Z,19.50
2022-11-18T12:10:22.051Z,19.50
2022-11-18T12:15:37.091Z,19.60
2022-11-18T12:20:42.590Z,19.40
2022-11-18T12:25:52.852Z,19.40
2022-11-18T12:31:14.418Z,19.50
2022-11-18T12:36:27.930Z,19.50
2022-11-18T12:42:07.183Z,19.50
2022-11-18T12:47:10.467Z,19.50
2022-11-18T12:52:28.526Z,19.50
2022-11-18T12:57:34.408Z,19.50
2022-11-18T13:02:37.628Z,19.50
2022-11-18T13:08:00.065Z,19.50
2022-11-18T13:13:05.359Z,19.50
2022-11-18T13:18:12.862Z,19.50
2022-11-18T13:23:46.172Z,19.50
2022-11-18T13:29:04.143Z,19.50
2022-11-18T13:34:13.969Z,19.60
2022-11-18T13:39:20.730Z,19.60
2022-11-18T13:44:25.648Z,19.50
2022-11-18T13:49:37.744Z,19.50
2022-11-18T13:54:41.064Z,19.50
2022-11-18T13:59:44.254Z,19.40
2022-11-18T14:04:52.373Z,19.30
2022-11-18T14:09:56.325Z,19.30
2022-11-18T14:15:15.618Z,19.40
2022-11-18T14:20:20.653Z,19.40
2022-11-18T14:25:25.760Z,19.40
2022-11-18T14:30:33.385Z,19.60
2022-11-18T14:35:38.077Z,19.40
2022-11-18T14:40:41.224Z,19.40
2022-11-18T14:45:44.449Z,19.40
2022-11-18T14:50:49.251Z,19.40
2022-11-18T14:55:53.055Z,19.50
2022-11-18T15:00:56.327Z,19.30
2022-11-18T15:06:01.007Z,19.40
2022-11-18T15:11:04.253Z,19.40
2022-11-18T15:16:12.662Z,19.30
2022-11-18T15:21:17.674Z,19.40
2022-11-18T15:26:22.160Z,19.50
2022-11-18T15:31:25.810Z,19.50
2022-11-18T15:36:30.461Z,19.40
2022-11-18T15:41:33.736Z,19.40
2022-11-18T15:46:36.948Z,19.40
2022-11-18T15:51:41.876Z,19.40
2022-11-18T15:56:45.116Z,19.30
2022-11-18T16:01:49.309Z,19.30
2022-11-18T16:06:54.455Z,19.40
2022-11-18T16:12:15.061Z,19.40
2022-11-18T16:17:18.174Z,19.20
2022-11-18T16:22:22.661Z,19.30
2022-11-18T16:27:25.756Z,19.30
2022-11-18T16:32:28.841Z,19.30
2022-11-18T16:37:33.359Z,19.30
2022-11-18T16:42:36.448Z,19.30
2022-11-18T16:47:39.574Z,19.30
2022-11-18T16:52:44.091Z,19.20
2022-11-18T16:57:47.169Z,19.30
2022-11-18T17:02:50.307Z,19.30
2022-11-18T17:07:54.885Z,19.30
2022-11-18T17:12:58.041Z,19.30
2022-11-18T17:18:01.108Z,19.20
2022-11-18T17:23:05.593Z,19.20
2022-11-18T17:28:08.690Z,19.20
2022-11-18T17:33:11.776Z,19.20
2022-11-18T17:38:16.272Z,19.20
2022-11-18T17:43:19.382Z,19.20
2022-11-18T17:48:22.874Z,19.10
2022-11-18T17:53:27.390Z,19.10
2022-11-18T17:58:30.500Z,19.10
2022-11-18T18:03:33.609Z,19.10
2022-11-18T18:08:38.181Z,19.10
2022-11-18T18:13:59.236Z,19.10
2022-11-18T18:19:03.103Z,19.10
2022-11-18T18:24:08.132Z,19.10
2022-11-18T18:29:12.410Z,19.20
2022-11-18T18:34:15.527Z,19.00
2022-11-18T18:39:20.059Z,19.00
2022-11-18T18:44:23.558Z,19.00
2022-11-18T18:49:26.792Z,19.00
2022-11-18T18:54:31.301Z,18.90
2022-11-18T18:59:34.438Z,18.90
2022-11-18T19:04:37.530Z,19.00
2022-11-18T19:09:42.229Z,18.90
2022-11-18T19:14:45.349Z,18.90
2022-11-18T19:20:05.766Z,18.90
2022-11-18T19:25:11.015Z,18.90
2022-11-18T19:30:14.602Z,18.80
2022-11-18T19:35:18.208Z,18.80
2022-11-18T19:40:22.796Z,18.90
2022-11-18T19:45:26.007Z,18.90
2022-11-18T19:50:29.161Z,18.80
2022-11-18T19:55:33.764Z,18.80
2022-11-18T20:00:36.984Z,18.80
2022-11-18T20:05:55.182Z,18.80
2022-11-18T20:11:05.345Z,18.80
2022-11-18T20:16:12.271Z,18.70
2022-11-18T20:21:20.007Z,18.70
2022-11-18T20:26:25.619Z,18.80
2022-11-18T20:31:29.037Z,18.70
2022-11-18T20:36:32.992Z,18.70
2022-11-18T20:41:37.692Z,18.80
2022-11-18T20:46:40.873Z,18.70
2022-11-18T20:51:44.061Z,18.70
2022-11-18T20:56:48.649Z,18.70
2022-11-18T21:01:51.886Z,18.60
2022-11-18T21:07:01.035Z,18.60
2022-11-18T21:12:05.704Z,18.50
2022-11-18T21:17:09.080Z,18.60
2022-11-18T21:22:12.273Z,18.60
2022-11-18T21:27:16.969Z,18.50
2022-11-18T21:32:20.306Z,18.60
2022-11-18T21:37:23.549Z,18.50
2022-11-18T21:42:28.150Z,18.60
2022-11-18T21:47:31.367Z,18.60
2022-11-18T21:52:34.472Z,18.50
2022-11-18T21:57:41.718Z,18.60
2022-11-18T22:02:45.047Z,18.60
2022-11-18T22:07:48.290Z,18.60
2022-11-18T22:12:52.968Z,18.50
2022-11-18T22:17:56.237Z,18.40
2022-11-18T22:22:59.394Z,18.50
2022-11-18T22:28:05.103Z,18.40
2022-11-18T22:33:08.304Z,18.50
2022-11-18T22:38:11.493Z,18.40
2022-11-18T22:43:16.060Z,18.50
2022-11-18T22:48:19.385Z,18.60
2022-11-18T22:53:22.525Z,18.50
2022-11-18T22:58:27.055Z,18.60
2022-11-18T23:03:30.576Z,18.50
2022-11-18T23:08:34.723Z,18.40
2022-11-18T23:14:03.834Z,18.50
2022-11-18T23:19:07.969Z,18.40
2022-11-18T23:24:12.295Z,18.40
2022-11-18T23:29:18.011Z,18.30
2022-11-18T23:34:21.633Z,18.50
2022-11-18T23:39:24.882Z,18.50
2022-11-18T23:44:49.052Z,18.50
2022-11-18T23:49:52.202Z,18.50
2022-11-18T23:54:56.361Z,18.40
